Terminal Aerodrome Forecast
Issued by NWS Charleston, WV

Current Version | Previous Version | Graphics & Text | Print | Product List | Glossary On
Versions: 1 2 3 4 5 6 7 8 9 10 11 12 13 14 15 16 17 18 19 20 21 22 23 24 25 26 27 28 29 30
000
FTUS41 KRLX 200200 AAA
TAFEKN
TAF AMD
KEKN 200205Z 2002/2024 15002KT P6SM SCT030 BKN040
     FM200500 00000KT 4SM BR BKN030
     FM200600 00000KT 2SM BR OVC020
     FM200700 00000KT 1SM BR OVC015
     FM200900 00000KT 1/2SM FG BKN002 OVC010
     FM201200 00000KT 2SM BR BKN002 OVC015
     FM201400 16002KT 4SM BR SCT003 OVC020
     FM201600 18005KT P6SM BKN035=

USA.gov is the U.S. government's official web portal to all federal, state and local government web resources and services.